SCBA/BBA METAR and TAF weather

Enter ICAO airport designator
Station Type Date Time Source
SCBA METAR 2021/03/08 21:00 UTC NOAA

SCBA 082100Z 30022KT CAVOK 13/02 Q1014


Station Type Date Time Source
SCBA Decoded METAR 2021/03/08 21:00 UTC NOAA

Balmaceda, Chile (SCBA) 45-55S 071-41W 520M
Mar 08, 2021 - 04:00 PM EST / 2021.03.08 2100 UTC
Wind: from the WNW (300 degrees) at 25 MPH (22 KT):0
Visibility: greater than 7 mile(s):0
Temperature: 55 F (13 C)
Dew Point: 35 F (2 C)
Relative Humidity: 47%
Pressure (altimeter): 29.94 in. Hg (1014 hPa)
ob: SCBA 082100Z 30022KT CAVOK 13/02 Q1014
cycle: 21

Station Type Date Time Source
SCBA TAF 2021/03/09 06:03 UTC NOAA

TAF SCBA 090447Z 0906/1006 28010KT CAVOK TN03/0910Z TX16/0917Z
BECMG 0913/0915 31021KT SCT040 SCT070
TEMPO 0916/0919 32025G35KT -RA BKN040 BKN090
BECMG 0919/0921 7000 -RA BKN035 BKN060
TEMPO 0923/1002 31022G32KT 9999 NSW SCT035 BKN100
BECMG 1003/1005 9999 -SHRA SCT030 BKN050

Example: see airport list